Time;durP1;ratioP1;P1;durP2;ratioP2;P2;SDS_P1;SDS_P2;PMS_P1;PMS_P2;Temp;Humidity;BMP_temperature;BMP_pressure;BME280_temperature;BME280_humidity;BME280_pressure;Samples;Min_cycle;Max_cycle;Signal;HPM_P1;HPM_P2
2022/05/07 00:03:02;;;;;;;3.58;2.10;;;11.10;1.40;;;12.61;100.00;95820.39;646731;216;31630;-74
2022/05/07 00:05:44;;;;;;;4.20;3.80;;;11.10;1.40;;;12.62;100.00;95819.13;618752;226;32460;-73
2022/05/07 00:08:26;;;;;;;;;;;11.00;1.40;;;12.64;100.00;95815.80;635819;215;24852;-74
2022/05/07 00:11:07;;;;;;;;;;;11.00;1.40;;;12.57;100.00;95819.83;649054;215;24743;-74
2022/05/07 00:13:48;;;;;;;;;;;11.00;1.40;;;12.53;100.00;95814.00;650101;216;24803;-75
2022/05/07 00:19:17;;;;;;;;;;;11.00;1.40;;;12.51;100.00;95812.75;652728;212;25081;-74
2022/05/07 00:21:58;;;;;;;;;;;11.00;1.40;;;12.51;100.00;95811.11;654319;212;24819;-74
2022/05/07 00:24:45;;;;;;;;;;;11.00;1.40;;;12.58;100.00;95811.49;652819;212;24736;-74
2022/05/07 00:27:30;;;;;;;;;;;11.00;1.40;;;12.50;100.00;95806.61;653812;212;24924;-74
2022/05/07 00:30:12;;;;;;;;;;;11.00;1.40;;;12.52;100.00;95806.23;649953;215;24819;-74
2022/05/07 00:32:54;;;;;;;;;;;11.00;1.40;;;12.55;100.00;95808.46;654295;212;24917;-74
2022/05/07 00:35:55;;;;;;;5.30;2.67;;;11.00;1.40;;;12.41;100.00;95809.83;647283;216;31530;-74
2022/05/07 00:38:37;;;;;;;4.00;3.00;;;10.90;1.40;;;12.38;100.00;95806.70;646433;216;32774;-73
2022/05/07 00:41:24;;;;;;;6.95;3.33;;;10.90;1.40;;;12.34;100.00;95808.64;645653;216;31598;-77
2022/05/07 00:44:08;;;;;;;;;;;10.90;1.40;;;12.26;100.00;95802.88;654109;216;24711;-74
2022/05/07 00:46:52;;;;;;;;;;;10.90;1.40;;;12.32;100.00;95796.94;654227;212;24904;-73
2022/05/07 00:49:33;;;;;;;;;;;10.90;1.40;;;12.35;100.00;95794.87;652215;216;24731;-73
2022/05/07 00:52:14;;;;;;;;;;;10.90;1.40;;;12.36;100.00;95791.24;653669;212;24901;-73
2022/05/07 00:54:56;;;;;;;;;;;11.00;1.40;;;12.30;100.00;95786.61;654676;212;24730;-74
2022/05/07 00:57:37;;;;;;;;;;;10.90;1.40;;;12.19;100.00;95778.41;653068;216;24836;-74
2022/05/07 01:00:18;;;;;;;;;;;10.90;1.40;;;12.09;100.00;95769.76;653836;212;24826;-73
2022/05/07 01:03:04;;;;;;;;;;;10.80;1.40;;;12.12;100.00;95772.91;653731;216;24842;-73
2022/05/07 01:05:44;;;;;;;;;;;10.80;1.40;;;12.11;100.00;95770.27;647359;215;24750;-74
2022/05/07 01:08:26;;;;;;;;;;;10.80;1.40;;;12.13;100.00;95772.61;644442;216;25122;-73
2022/05/07 01:11:08;;;;;;;;;;;10.80;1.40;;;12.11;100.00;95769.34;652838;216;24722;-74
2022/05/07 01:13:49;;;;;;;;;;;10.80;1.40;;;12.04;100.00;95768.11;650012;215;24809;-73
2022/05/07 01:16:30;;;;;;;;;;;10.80;1.40;;;11.99;100.00;95767.03;622835;224;24861;-72
2022/05/07 01:19:11;;;;;;;;;;;10.80;1.40;;;12.03;100.00;95768.25;653210;216;24823;-73
2022/05/07 01:21:54;;;;;;;;;;;10.80;1.40;;;12.05;100.00;95766.78;653536;212;25231;-74
2022/05/07 01:24:35;;;;;;;;;;;10.80;1.40;;;12.09;100.00;95764.38;652943;216;25715;-74
2022/05/07 01:27:17;;;;;;;;;;;10.80;1.40;;;12.10;100.00;95764.48;653539;212;24821;-72
2022/05/07 01:29:58;;;;;;;;;;;10.80;1.40;;;12.11;100.00;95761.95;653255;216;24846;-73
2022/05/07 01:32:42;;;;;;;;;;;10.80;1.40;;;12.15;100.00;95760.44;654107;212;24845;-73
2022/05/07 01:35:51;;;;;;;;;;;10.80;1.40;;;12.15;100.00;95757.50;649434;214;24733;-73
2022/05/07 01:38:32;;;;;;;;;;;10.80;1.40;;;12.15;100.00;95756.36;652538;216;25343;-73
2022/05/07 01:41:14;;;;;;;;;;;10.80;1.40;;;12.17;100.00;95756.05;653490;216;24807;-74
2022/05/07 01:43:56;;;;;;;;;;;10.80;1.40;;;12.20;100.00;95754.84;653988;216;24818;-74
2022/05/07 01:49:39;;;;;;;;;;;10.90;1.40;;;12.13;100.00;95759.08;647611;217;24832;-74
2022/05/07 01:52:24;;;;;;;;;;;10.90;1.40;;;12.17;100.00;95758.77;652281;212;24746;-75
2022/05/07 01:55:05;;;;;;;;;;;10.90;1.40;;;12.25;100.00;95756.30;648958;215;24821;-73
2022/05/07 01:57:46;;;;;;;;;;;10.90;1.40;;;12.25;100.00;95758.25;652519;216;24915;-73
2022/05/07 02:00:29;;;;;;;;;;;10.90;1.40;;;12.32;100.00;95758.72;654215;212;25259;-76
2022/05/07 02:03:09;;;;;;;;;;;10.90;1.40;;;12.30;100.00;95756.37;652505;212;24815;-74
2022/05/07 02:05:53;;;;;;;;;;;10.90;1.40;;;12.23;100.00;95758.03;652605;216;25906;-74
2022/05/07 02:08:34;;;;;;;;;;;10.90;1.40;;;12.24;100.00;95760.45;653799;216;24954;-73
2022/05/07 02:11:16;;;;;;;;;;;10.90;1.40;;;12.25;100.00;95756.69;654067;216;24718;-73
2022/05/07 02:14:00;;;;;;;;;;;10.90;1.40;;;12.24;100.00;95750.06;653693;214;26212;-73
2022/05/07 02:16:42;;;;;;;;;;;10.90;1.40;;;12.25;100.00;95752.92;653826;216;24749;-74
2022/05/07 02:19:23;;;;;;;;;;;10.90;1.40;;;12.25;100.00;95750.59;653521;212;24882;-74
2022/05/07 02:22:07;;;;;;;;;;;10.90;1.40;;;12.22;100.00;95749.41;653944;212;24832;-73
2022/05/07 02:24:49;;;;;;;;;;;10.90;1.40;;;12.27;100.00;95749.73;648979;214;24780;-73
2022/05/07 02:27:33;;;;;;;;;;;10.90;1.40;;;12.31;100.00;95750.05;653280;213;24945;-76
2022/05/07 02:30:14;;;;;;;;;;;10.90;1.40;;;12.36;100.00;95751.83;648823;217;24823;-74
2022/05/07 02:32:55;;;;;;;;;;;11.00;1.40;;;12.39;100.00;95754.95;653466;212;24910;-73
2022/05/07 02:35:51;;;;;;;5.10;4.60;;;11.00;1.40;;;12.40;100.00;95752.27;618210;226;31932;-74
2022/05/07 02:38:33;;;;;;;3.30;3.00;;;11.00;1.40;;;12.39;100.00;95751.38;646287;212;31859;-74
2022/05/07 02:44:06;;;;;;;;;;;11.00;1.40;;;12.35;100.00;95750.45;654097;216;24804;-73
2022/05/07 02:46:46;;;;;;;;;;;11.00;1.40;;;12.33;100.00;95751.34;653848;212;24811;-76
2022/05/07 02:49:27;;;;;;;;;;;10.90;1.40;;;12.36;100.00;95747.80;649659;216;24894;-74
2022/05/07 02:52:08;;;;;;;;;;;11.00;1.40;;;12.39;100.00;95752.18;654949;216;25575;-74
2022/05/07 02:54:53;;;;;;;;;;;11.00;1.40;;;12.42;100.00;95743.73;648784;216;24821;-75
2022/05/07 02:57:34;;;;;;;;;;;11.00;1.40;;;12.40;100.00;95744.07;652902;216;24727;-76
2022/05/07 03:00:16;;;;;;;;;;;11.00;1.40;;;12.39;100.00;95744.34;653303;216;24758;-74
2022/05/07 03:02:57;;;;;;;;;;;11.00;1.40;;;12.32;100.00;95742.83;652772;216;24831;-73
2022/05/07 03:05:38;;;;;;;;;;;10.90;1.40;;;12.24;100.00;95740.19;650690;214;24792;-74
2022/05/07 03:08:21;;;;;;;;;;;10.80;1.40;;;12.18;100.00;95740.21;645668;216;24971;-74
2022/05/07 03:11:01;;;;;;;;;;;10.90;1.40;;;12.20;100.00;95744.07;652824;216;24858;-74
2022/05/07 03:13:42;;;;;;;;;;;10.90;1.40;;;12.26;100.00;95740.24;653065;213;24736;-75
2022/05/07 03:16:23;;;;;;;;;;;10.90;1.40;;;12.28;100.00;95742.88;653238;213;24976;-74
2022/05/07 03:19:05;;;;;;;;;;;10.90;1.40;;;12.30;100.00;95743.59;652990;216;24762;-73
2022/05/07 03:21:47;;;;;;;;;;;10.90;1.40;;;12.32;100.00;95743.97;632511;220;24883;-73
2022/05/07 03:24:28;;;;;;;;;;;11.00;1.40;;;12.32;100.00;95745.19;654053;216;24903;-74
2022/05/07 03:27:09;;;;;;;;;;;11.00;1.40;;;12.29;100.00;95743.30;654262;216;24830;-74
2022/05/07 03:29:51;;;;;;;;;;;11.00;1.40;;;12.33;100.00;95742.66;648472;214;24828;-74
2022/05/07 03:32:32;;;;;;;;;;;11.00;1.40;;;12.34;100.00;95742.59;653972;216;24716;-73
2022/05/07 03:38:25;;;;;;;;;;;11.00;1.40;;;12.31;100.00;95747.23;654076;216;25118;-74
2022/05/07 03:41:06;;;;;;;;;;;10.90;1.40;;;12.28;100.00;95743.25;654286;216;24818;-76
2022/05/07 03:43:48;;;;;;;;;;;11.00;1.40;;;12.32;100.00;95749.31;648742;215;24819;-74
2022/05/07 03:46:29;;;;;;;;;;;11.00;1.40;;;12.33;100.00;95741.72;652434;212;25307;-74
2022/05/07 03:49:14;;;;;;;;;;;11.00;1.40;;;12.31;100.00;95741.98;653320;212;24722;-75
2022/05/07 03:54:43;;;;;;;;;;;11.00;1.40;;;12.45;100.00;95740.35;654205;212;25248;-74
2022/05/07 03:57:23;;;;;;;;;;;11.00;1.40;;;12.42;100.00;95744.77;652537;212;24824;-74
2022/05/07 04:00:06;;;;;;;;;;;11.00;1.40;;;12.43;100.00;95740.41;652965;216;24799;-73
2022/05/07 04:02:47;;;;;;;;;;;11.00;1.40;;;12.42;100.00;95741.89;649564;216;24805;-73
2022/05/07 04:05:28;;;;;;;;;;;11.00;1.40;;;12.43;100.00;95739.90;653405;216;24804;-73
2022/05/07 04:08:10;;;;;;;;;;;11.00;1.40;;;12.44;100.00;95742.66;646865;216;24777;-74
2022/05/07 04:10:51;;;;;;;;;;;11.00;1.40;;;12.44;100.00;95747.92;648543;216;24752;-74
2022/05/07 04:13:36;;;;;;;;;;;11.00;1.40;;;12.46;100.00;95741.17;649768;215;24836;-73
2022/05/07 04:16:17;;;;;;;;;;;11.00;1.40;;;12.47;100.00;95743.21;652667;212;24960;-74
2022/05/07 04:18:58;;;;;;;;;;;11.10;1.40;;;12.51;100.00;95744.38;652995;216;25647;-75
2022/05/07 04:21:40;;;;;;;;;;;11.10;1.40;;;12.51;100.00;95741.75;653889;216;24820;-74
2022/05/07 04:24:21;;;;;;;;;;;11.10;1.40;;;12.54;100.00;95742.81;654041;212;24836;-73
2022/05/07 04:27:03;;;;;;;;;;;11.10;1.40;;;12.59;100.00;95740.63;653291;216;26462;-74
2022/05/07 04:29:46;;;;;;;;;;;11.10;1.40;;;12.57;100.00;95745.20;653838;212;24753;-74
2022/05/07 04:32:27;;;;;;;;;;;11.10;1.40;;;12.48;100.00;95744.50;622063;226;25258;-75
2022/05/07 04:35:51;;;;;;;9.77;6.20;;;11.10;1.40;;;12.52;100.00;95748.14;646172;216;31589;-74
2022/05/07 04:38:32;;;;;;;;;;;11.10;1.40;;;12.69;100.00;95748.84;653412;216;24742;-73
2022/05/07 04:41:15;;;;;;;;;;;11.20;1.40;;;12.78;100.00;95749.43;652741;212;24919;-74
2022/05/07 04:43:56;;;;;;;;;;;11.30;1.40;;;12.83;100.00;95750.79;652869;216;24729;-75
2022/05/07 04:46:40;;;;;;;;;;;11.30;1.40;;;12.82;100.00;95750.42;652643;212;24929;-75
2022/05/07 04:49:23;;;;;;;;;;;11.30;1.40;;;12.87;100.00;95755.09;654326;216;24832;-74
2022/05/07 04:52:07;;;;;;;;;;;11.30;1.40;;;12.70;100.00;95754.91;653217;216;24737;-75
2022/05/07 04:54:48;;;;;;;;;;;11.20;1.40;;;12.62;100.00;95753.02;653393;212;24808;-76
2022/05/07 04:57:31;;;;;;;;;;;11.20;1.40;;;12.65;100.00;95758.47;653429;216;25229;-76
2022/05/07 05:00:20;;;;;;;;;;;11.20;1.40;;;12.51;100.00;95760.84;647326;217;25223;-76
2022/05/07 05:03:00;;;;;;;;;;;11.20;1.40;;;12.42;100.00;95757.00;648212;216;24830;-75
2022/05/07 05:05:41;;;;;;;;;;;11.20;1.40;;;12.50;100.00;95757.45;653289;212;24882;-75
2022/05/07 05:08:27;;;;;;;;;;;11.20;1.40;;;12.55;100.00;95759.06;645025;212;24854;-74
2022/05/07 05:11:07;;;;;;;;;;;11.30;1.40;;;12.68;100.00;95762.85;653547;213;24895;-75
2022/05/07 05:13:48;;;;;;;;;;;11.30;1.40;;;12.65;100.00;95764.73;653479;216;25318;-75
2022/05/07 05:16:30;;;;;;;;;;;11.30;1.40;;;12.80;100.00;95767.02;653607;212;24932;-75
2022/05/07 05:19:11;;;;;;;;;;;11.40;1.40;;;12.62;100.00;95770.74;653232;216;25157;-75
2022/05/07 05:21:53;;;;;;;;;;;11.30;1.40;;;12.63;100.00;95772.31;654133;216;24820;-75
2022/05/07 05:24:34;;;;;;;;;;;11.30;1.40;;;12.66;100.00;95771.72;653136;212;24824;-74
2022/05/07 05:27:18;;;;;;;;;;;11.30;1.40;;;12.68;100.00;95773.19;654200;212;24811;-74
2022/05/07 05:30:00;;;;;;;;;;;11.30;1.40;;;12.72;100.00;95778.27;654048;216;24818;-76
2022/05/07 05:32:41;;;;;;;;;;;11.40;1.40;;;12.78;100.00;95775.77;652158;216;24835;-76
2022/05/07 05:35:51;;;;;;;8.18;6.22;;;11.40;1.40;;;12.71;100.00;95778.00;645845;216;31570;-75
2022/05/07 05:38:32;;;;;;;;;;;11.30;1.40;;;12.83;100.00;95779.31;653708;212;24928;-76
2022/05/07 05:41:13;;;;;;;;;;;11.40;1.40;;;12.71;100.00;95780.17;653420;212;24838;-74
2022/05/07 05:43:55;;;;;;;;;;;11.30;1.40;;;12.83;100.00;95783.39;653618;212;24868;-74
2022/05/07 05:46:37;;;;;;;;;;;11.40;1.40;;;12.78;100.00;95785.34;654122;216;25211;-79
2022/05/07 05:49:24;;;;;;;;;;;11.40;1.40;;;12.77;100.00;95783.56;647637;216;24742;-74
2022/05/07 05:52:06;;;;;;;;;;;11.40;1.40;;;12.88;100.00;95783.81;653774;212;24818;-74
2022/05/07 05:54:52;;;;;;;;;;;11.40;1.40;;;12.87;100.00;95786.00;649093;217;25313;-78
2022/05/07 05:57:39;;;;;;;;;;;11.40;1.40;;;12.87;100.00;95786.56;653199;216;25029;-74
2022/05/07 06:00:20;;;;;;;;;;;11.40;1.40;;;12.95;100.00;95791.73;652891;216;24817;-74
2022/05/07 06:03:02;;;;;;;;;;;11.50;1.40;;;12.98;100.00;95788.06;620724;226;24996;-74
2022/05/07 06:05:43;;;;;;;;;;;11.50;1.40;;;12.97;100.00;95789.30;653134;216;24819;-75
2022/05/07 06:08:25;;;;;;;;;;;11.60;1.40;;;13.20;100.00;95787.61;648564;216;25986;-74
2022/05/07 06:11:10;;;;;;;;;;;11.70;1.40;;;13.34;100.00;95788.52;652561;216;24841;-75
2022/05/07 06:13:50;;;;;;;;;;;11.80;1.40;;;13.42;100.00;95791.06;653643;216;24721;-74
2022/05/07 06:16:33;;;;;;;;;;;11.80;1.40;;;13.37;100.00;95795.41;649429;216;25207;-75
2022/05/07 06:19:14;;;;;;;;;;;11.70;1.40;;;13.26;100.00;95794.99;652109;216;24740;-74
2022/05/07 06:21:55;;;;;;;;;;;11.70;1.40;;;13.42;100.00;95792.95;651977;212;24817;-74
2022/05/07 06:27:31;;;;;;;;;;;11.90;1.40;;;13.62;100.00;95795.21;653858;216;25365;-76
2022/05/07 06:30:10;;;;;;;;;;;11.90;1.40;;;13.73;100.00;95792.77;652793;212;24888;-75
2022/05/07 06:32:52;;;;;;;;;;;12.00;1.40;;;13.82;100.00;95792.17;653758;216;24824;-75
2022/05/07 06:35:53;;;;;;;11.52;6.10;;;11.90;1.40;;;13.55;100.00;95791.50;646047;212;42212;-75
2022/05/07 06:38:35;;;;;;;10.80;6.07;;;11.90;1.40;;;13.55;100.00;95794.39;646339;216;31581;-75
2022/05/07 06:41:19;;;;;;;;;;;12.00;1.40;;;13.79;100.00;95793.29;652335;216;24939;-74
2022/05/07 06:44:02;;;;;;;;;;;12.00;1.40;;;13.85;100.00;95792.02;653029;216;24808;-77
2022/05/07 06:46:50;;;;;;;;;;;12.20;1.40;;;14.01;100.00;95795.41;637100;221;24784;-75
2022/05/07 06:49:31;;;;;;;;;;;12.40;1.40;;;14.36;100.00;95797.16;649035;216;24197;-75
2022/05/07 06:52:12;;;;;;;;;;;12.50;1.40;;;14.19;100.00;95802.25;653184;212;24967;-74
2022/05/07 06:54:54;;;;;;;;;;;12.30;1.40;;;14.23;100.00;95799.67;652077;215;25015;-75
2022/05/07 06:57:38;;;;;;;;;;;12.30;1.40;;;14.36;100.00;95797.39;653553;216;24815;-74
2022/05/07 07:00:19;;;;;;;;;;;12.30;1.40;;;14.54;100.00;95802.77;653393;216;24840;-75
2022/05/07 07:03:01;;;;;;;;;;;12.50;1.40;;;14.54;100.00;95804.73;652850;216;25380;-75
2022/05/07 07:05:42;;;;;;;;;;;12.50;1.40;;;14.77;100.00;95803.66;653245;212;24824;-75
2022/05/07 07:08:24;;;;;;;;;;;12.50;1.40;;;14.63;100.00;95806.97;648946;216;24899;-75
2022/05/07 07:11:04;;;;;;;;;;;12.50;1.40;;;14.58;100.00;95806.32;620750;226;25194;-76
2022/05/07 07:13:46;;;;;;;;;;;12.70;1.40;;;14.87;100.00;95803.61;654020;216;24823;-75
2022/05/07 07:16:27;;;;;;;;;;;13.10;1.40;;;15.37;100.00;95808.97;649308;216;24814;-75
2022/05/07 07:19:09;;;;;;;;;;;13.10;1.40;;;15.38;100.00;95805.98;652841;216;24930;-75
2022/05/07 07:21:50;;;;;;;;;;;13.10;1.40;;;15.57;100.00;95807.64;652022;216;24736;-74
2022/05/07 07:24:31;;;;;;;;;;;12.90;1.40;;;15.24;100.00;95816.06;652572;216;24829;-74
2022/05/07 07:27:13;;;;;;;;;;;12.70;1.40;;;14.93;100.00;95812.45;652974;216;24977;-74
2022/05/07 07:29:54;;;;;;;;;;;12.70;1.40;;;15.25;100.00;95807.09;621896;226;24967;-74
2022/05/07 07:32:36;;;;;;;;;;;12.80;1.40;;;15.14;100.00;95804.44;652694;212;24960;-75
2022/05/07 07:35:51;;;;;;;;;;;13.20;1.40;;;15.34;100.00;95806.80;653503;216;24746;-74
2022/05/07 07:38:32;;;;;;;;;;;13.20;1.40;;;15.68;100.00;95802.77;652773;216;24803;-75
2022/05/07 07:41:13;;;;;;;;;;;13.00;1.40;;;15.15;100.00;95809.33;652742;216;24822;-74
2022/05/07 07:43:55;;;;;;;;;;;12.70;1.40;;;14.98;100.00;95806.25;654254;216;24834;-75
2022/05/07 07:49:23;;;;;;;;;;;12.60;1.40;;;14.67;100.00;95803.34;652336;212;26250;-76
2022/05/07 07:52:05;;;;;;;;;;;12.60;1.40;;;14.40;100.00;95806.60;652589;212;24739;-75
2022/05/07 07:54:46;;;;;;;;;;;12.40;1.40;;;14.33;100.00;95809.31;653226;216;24815;-75
2022/05/07 07:57:27;;;;;;;;;;;12.40;1.40;;;14.03;100.00;95809.34;652512;216;24732;-74
2022/05/07 08:00:12;;;;;;;;;;;12.30;1.40;;;13.79;100.00;95803.80;653828;216;24817;-75
2022/05/07 08:02:53;;;;;;;;;;;12.20;1.40;;;13.84;100.00;95806.17;654175;212;25539;-76
2022/05/07 08:05:35;;;;;;;;;;;12.30;1.40;;;14.00;100.00;95810.64;654482;212;25259;-75
2022/05/07 08:13:53;;;;;;;;;;;12.30;1.40;;;13.76;100.00;95805.30;654461;212;24838;-77
2022/05/07 08:16:38;;;;;;;;;;;12.30;1.40;;;13.67;100.00;95803.80;653084;216;24850;-75
2022/05/07 08:19:19;;;;;;;;;;;12.20;1.40;;;13.82;100.00;95806.87;653915;216;24798;-75
2022/05/07 08:22:01;;;;;;;;;;;12.30;1.40;;;13.78;100.00;95812.05;653800;212;24826;-75
2022/05/07 08:24:45;;;;;;;;;;;12.20;1.40;;;13.80;100.00;95812.54;651907;212;24822;-75
2022/05/07 08:27:26;;;;;;;;;;;12.20;1.40;;;13.64;100.00;95811.40;652202;216;24825;-74
2022/05/07 08:30:08;;;;;;;;;;;12.20;1.40;;;13.60;100.00;95813.95;652976;212;24861;-76
2022/05/07 08:32:52;;;;;;;;;;;12.10;1.40;;;13.53;100.00;95813.52;653587;212;25764;-76
2022/05/07 08:35:51;;;;;;;9.50;4.82;;;12.10;1.40;;;13.20;100.00;95817.13;618695;222;32200;-75
2022/05/07 08:38:33;;;;;;;4.50;3.77;;;11.90;1.40;;;13.09;100.00;95817.27;640785;214;31460;-75
2022/05/07 08:41:14;;;;;;;6.65;3.58;;;11.80;1.40;;;13.03;100.00;95821.25;647936;216;37490;-76
2022/05/07 08:43:57;;;;;;;6.03;3.80;;;11.70;1.40;;;13.12;100.00;95821.50;618042;222;32020;-75
2022/05/07 08:46:38;;;;;;;;;;;11.70;1.40;;;13.11;100.00;95823.55;649305;216;25442;-77
2022/05/07 08:49:23;;;;;;;;;;;11.70;1.40;;;13.24;100.00;95826.87;653516;212;24843;-75
2022/05/07 08:52:04;;;;;;;;;;;11.80;1.40;;;13.25;100.00;95823.77;653157;216;25248;-76
2022/05/07 08:54:52;;;;;;;;;;;11.90;1.40;;;13.29;100.00;95826.28;650094;216;24869;-79
2022/05/07 08:57:36;;;;;;;;;;;12.00;1.40;;;13.34;100.00;95821.84;653309;216;24809;-76
2022/05/07 09:00:17;;;;;;;;;;;12.00;1.40;;;13.64;100.00;95823.80;653650;212;24876;-75
2022/05/07 09:03:04;;;;;;;;;;;12.30;1.40;;;13.99;100.00;95823.53;654367;216;24913;-78
2022/05/07 09:05:46;;;;;;;;;;;12.60;1.40;;;13.97;100.00;95828.84;649854;215;26070;-78
2022/05/07 09:08:33;;;;;;;;;;;12.50;1.40;;;13.77;100.00;95826.11;648720;216;24866;-76
2022/05/07 09:11:14;;;;;;;;;;;12.50;1.40;;;13.83;100.00;95823.48;652451;212;24912;-75
2022/05/07 09:14:04;;;;;;;;;;;12.50;1.40;;;13.67;100.00;95829.06;647725;219;24822;-78
2022/05/07 09:16:52;;;;;;;;;;;12.40;1.40;;;13.97;100.00;95833.84;653411;212;24741;-75
2022/05/07 09:19:33;;;;;;;;;;;12.60;1.40;;;14.12;100.00;95835.59;652646;216;25192;-74
2022/05/07 09:22:15;;;;;;;;;;;12.70;1.40;;;14.21;100.00;95833.55;651900;216;24833;-75
2022/05/07 09:24:56;;;;;;;;;;;12.80;1.40;;;14.22;100.00;95839.13;654339;216;24794;-75
2022/05/07 09:27:46;;;;;;;;;;;12.70;1.40;;;13.81;100.00;95837.98;654740;212;24825;-77
2022/05/07 09:30:32;;;;;;;;;;;12.50;1.40;;;13.73;100.00;95835.83;652484;216;24876;-76
2022/05/07 09:35:52;;;;;;;4.80;4.00;;;12.40;1.40;;;13.06;100.00;95837.66;619721;222;31918;-75
2022/05/07 09:38:33;;;;;;;5.75;3.97;;;12.20;1.40;;;13.41;100.00;95836.34;647424;216;35379;-75
2022/05/07 09:41:21;;;;;;;7.95;4.85;;;12.30;1.40;;;13.26;100.00;95834.86;615912;226;31961;-79
2022/05/07 09:44:08;;;;;;;;;;;12.20;1.40;;;13.42;100.00;95829.89;652679;216;24944;-76
2022/05/07 09:46:50;;;;;;;;;;;12.20;1.40;;;13.69;100.00;95830.75;649369;214;25912;-75
2022/05/07 09:49:33;;;;;;;;;;;12.40;1.40;;;13.50;100.00;95825.36;654546;212;24790;-75
2022/05/07 09:52:15;;;;;;;;;;;12.30;1.40;;;14.03;100.00;95824.83;652826;216;25319;-75
2022/05/07 09:57:44;;;;;;;;;;;12.40;1.40;;;13.76;100.00;95824.87;653856;212;24811;-76
2022/05/07 10:00:25;;;;;;;;;;;12.70;1.40;;;14.23;100.00;95827.31;652698;216;26459;-75
2022/05/07 10:03:09;;;;;;;;;;;12.90;1.40;;;14.56;100.00;95826.72;651611;212;24736;-74
2022/05/07 10:06:01;;;;;;;;;;;13.20;1.40;;;14.87;100.00;95820.86;653290;216;24794;-75
2022/05/07 10:08:54;;;;;;;;;;;13.60;1.40;;;15.13;100.00;95819.38;648370;216;25943;-75
2022/05/07 10:11:45;;;;;;;;;;;13.70;1.40;;;15.28;100.00;95822.95;652789;216;24824;-77
2022/05/07 10:14:29;;;;;;;;;;;13.90;1.40;;;15.77;100.00;95823.11;653449;212;24820;-75
2022/05/07 10:17:09;;;;;;;;;;;14.00;1.40;;;15.51;100.00;95824.42;621458;224;26238;-75
2022/05/07 10:19:54;;;;;;;;;;;14.20;1.40;;;16.12;100.00;95824.94;653073;216;24810;-75
2022/05/07 10:22:35;;;;;;;;;;;14.80;1.40;;;15.40;100.00;95824.45;648717;216;25239;-75
2022/05/07 10:25:16;;;;;;;;;;;14.40;1.40;;;15.77;100.00;95816.37;653217;216;24823;-74
2022/05/07 10:27:57;;;;;;;;;;;14.60;1.40;;;16.36;100.00;95817.45;652582;212;24867;-74
2022/05/07 10:30:45;;;;;;;;;;;15.50;1.40;;;17.68;100.00;95821.98;652951;216;25209;-74
2022/05/07 10:35:54;;;;;;;2.83;2.40;;;16.30;1.40;;;17.41;100.00;95825.52;647787;212;31692;-75
2022/05/07 10:38:39;;;;;;;2.53;2.00;;;15.50;1.40;;;18.02;100.00;95824.80;619035;222;31919;-75
2022/05/07 10:41:22;;;;;;;2.00;1.80;;;15.40;1.40;;;17.90;100.00;95832.06;647018;216;31756;-75
2022/05/07 10:44:04;;;;;;;2.50;2.12;;;15.00;1.40;;;17.46;100.00;95831.36;646013;216;31638;-74
2022/05/07 10:46:48;;;;;;;2.97;2.67;;;15.10;1.40;;;17.82;100.00;95823.64;646099;212;31521;-75
2022/05/07 10:49:30;;;;;;;6.03;2.00;;;15.70;1.40;;;18.14;100.00;95824.61;646988;216;31646;-75
2022/05/07 10:52:12;;;;;;;2.40;2.20;;;15.60;1.40;;;18.32;100.00;95827.25;647672;212;31586;-76
2022/05/07 10:55:00;;;;;;;2.85;2.45;;;15.60;1.40;;;17.61;100.00;95829.46;646375;212;32517;-75
2022/05/07 10:57:44;;;;;;;2.12;1.80;;;14.80;1.40;;;17.20;100.00;95830.29;647592;212;37297;-75
2022/05/07 11:00:26;;;;;;;2.10;1.90;;;14.20;1.40;;;16.83;100.00;95828.97;646718;212;36365;-74
2022/05/07 11:03:12;;;;;;;4.95;2.95;;;14.20;1.40;;;16.40;100.00;95829.46;645295;216;32599;-76
2022/05/07 11:05:52;;;;;;;5.62;3.20;;;14.10;1.40;;;16.59;100.00;95826.24;647089;216;31563;-75
2022/05/07 11:08:35;;;;;;;3.65;3.35;;;13.90;1.40;;;15.86;100.00;95823.63;642831;216;31900;-75
2022/05/07 11:11:15;;;;;;;3.57;2.53;;;13.70;1.40;;;15.47;100.00;95825.00;619935;222;32382;-74
2022/05/07 11:13:57;;;;;;;2.95;2.65;;;13.60;1.40;;;15.65;100.00;95815.58;645883;216;31606;-75
2022/05/07 11:16:42;;;;;;;3.00;2.62;;;13.80;1.40;;;16.08;100.00;95816.34;646369;216;31555;-74
2022/05/07 11:21:47;;;;;;;4.68;2.90;;;14.30;1.40;;;16.36;100.00;95813.23;647220;212;31554;-74
2022/05/07 11:24:26;;;;;;;3.60;3.10;;;15.00;1.40;;;17.46;100.00;95810.56;619193;226;31882;-75
2022/05/07 11:27:10;;;;;;;3.97;3.37;;;15.90;1.40;;;18.86;100.00;95811.08;646941;216;31569;-75
2022/05/07 11:29:50;;;;;;;3.83;3.30;;;16.80;1.40;;;18.40;100.00;95815.16;646340;216;31617;-75
2022/05/07 11:32:36;;;;;;;3.42;2.80;;;16.20;1.40;;;18.32;100.00;95807.89;645543;212;42211;-74
2022/05/07 11:36:01;;;;;;;4.60;3.67;;;16.00;1.40;;;17.18;100.00;95812.22;646303;212;31604;-75
2022/05/07 11:38:42;;;;;;;3.37;2.40;;;15.30;1.40;;;17.53;100.00;95811.73;647893;216;32411;-75
2022/05/07 11:41:24;;;;;;;3.60;3.30;;;15.20;1.40;;;17.98;100.00;95815.42;646906;212;31667;-75
2022/05/07 11:46:55;;;;;;;2.90;2.60;;;15.20;1.40;;;17.88;100.00;95815.25;645481;216;42172;-75
2022/05/07 11:49:37;;;;;;;3.20;2.90;;;15.10;1.40;;;17.59;100.00;95818.53;642628;214;33621;-75
2022/05/07 11:52:18;;;;;;;3.10;2.28;;;15.10;1.40;;;17.44;100.00;95816.37;646735;216;31813;-75
2022/05/07 11:55:05;;;;;;;3.78;2.65;;;15.10;1.40;;;17.31;100.00;95817.91;618627;226;31891;-75
2022/05/07 11:57:48;;;;;;;2.17;1.98;;;14.90;1.40;;;18.00;100.00;95812.89;646523;212;31556;-74
2022/05/07 12:00:30;;;;;;;2.50;2.30;;;15.00;1.40;;;17.20;100.00;95812.45;646841;215;31814;-75
2022/05/07 12:03:11;;;;;;;2.72;2.22;;;14.80;1.40;;;17.98;100.00;95804.23;618495;222;31879;-74
2022/05/07 12:05:58;;;;;;;2.75;2.40;;;15.20;1.40;;;17.99;100.00;95798.92;647785;216;31555;-79
2022/05/07 12:08:42;;;;;;;6.05;2.50;;;15.40;1.40;;;17.71;100.00;95800.13;642079;216;31742;-75
2022/05/07 12:11:24;;;;;;;2.30;2.10;;;15.50;1.40;;;17.93;100.00;95803.64;647573;212;31567;-75
2022/05/07 12:14:05;;;;;;;1.67;1.58;;;15.60;1.40;;;18.33;100.00;95804.23;645363;212;32149;-74
2022/05/07 12:30:14;;;;;;;3.30;2.75;;;15.90;1.40;;;19.02;100.00;95791.98;646297;212;42150;-76
2022/05/07 12:32:56;;;;;;;2.72;2.10;;;16.50;1.40;;;19.28;100.00;95797.63;647339;216;31848;-75
2022/05/07 12:35:52;;;;;;;3.10;2.80;;;16.50;1.40;;;18.71;100.00;95797.16;645834;216;32184;-74
2022/05/07 12:38:32;;;;;;;2.22;1.77;;;16.10;1.40;;;17.84;100.00;95795.18;646110;212;31713;-75
2022/05/07 12:41:14;;;;;;;2.17;1.87;;;15.80;1.40;;;16.83;100.00;95795.75;647221;216;31535;-75
2022/05/07 12:44:00;;;;;;;1.87;1.62;;;15.30;1.40;;;17.23;100.00;95791.61;646445;212;31602;-74
2022/05/07 12:46:41;;;;;;;1.83;1.50;;;15.70;1.40;;;17.95;100.00;95791.41;645508;212;31546;-75
2022/05/07 12:49:22;;;;;;;1.98;1.60;;;16.30;1.40;;;19.37;100.00;95787.30;645516;216;31571;-74
2022/05/07 12:52:07;;;;;;;1.75;1.48;;;16.90;1.40;;;19.58;100.00;95790.42;646694;216;31790;-74
2022/05/07 12:54:46;;;;;;;1.48;1.15;;;16.90;1.40;;;20.79;100.00;95782.22;647267;216;31663;-75
2022/05/07 12:57:31;;;;;;;1.70;1.60;;;17.00;1.40;;;20.54;100.00;95782.08;647431;216;31752;-75
2022/05/07 13:00:14;;;;;;;2.08;1.87;;;17.00;1.40;;;19.08;100.00;95782.39;646767;216;31570;-74
2022/05/07 13:03:00;;;;;;;2.63;1.73;;;16.10;1.40;;;19.34;100.00;95782.38;647833;216;31633;-75
2022/05/07 13:05:38;;;;;;;2.62;1.60;;;16.30;1.40;;;19.88;100.00;95775.97;646383;212;31701;-75
2022/05/07 13:08:19;;;;;;;1.60;1.50;;;16.80;1.40;;;20.22;100.00;95770.87;642271;216;32130;-75